createdAt,value
2023-04-20T00:00:11.096Z,102317.63
2023-04-20T00:02:42.802Z,102320.78
2023-04-20T00:05:12.847Z,102318.94
2023-04-20T00:08:54.400Z,102318.28
2023-04-20T00:11:26.666Z,102313.84
2023-04-20T00:13:54.741Z,102313.66
2023-04-20T00:16:24.150Z,102315.47
2023-04-20T00:18:52.270Z,102313.44
2023-04-20T00:21:24.087Z,102311.44
2023-04-20T00:23:52.461Z,102318.50
2023-04-20T00:26:20.940Z,102308.53
2023-04-20T00:28:53.106Z,102308.03
2023-04-20T00:31:21.541Z,102306.50
2023-04-20T00:33:51.053Z,102305.66
2023-04-20T00:36:19.137Z,102303.78
2023-04-20T00:38:47.135Z,102303.28
2023-04-20T00:41:15.171Z,102304.13
2023-04-20T00:43:51.335Z,102302.13
2023-04-20T00:46:19.653Z,102299.56
2023-04-20T01:02:23.713Z,102282.63
2023-04-20T01:04:52.011Z,102286.50
2023-04-20T01:07:19.980Z,102277.84
2023-04-20T01:09:51.432Z,102273.16
2023-04-20T01:12:19.455Z,102276.69
2023-04-20T01:14:47.484Z,102281.94
2023-04-20T01:17:15.780Z,102272.84
2023-04-20T01:19:49.175Z,102266.91
2023-04-20T01:22:19.544Z,102260.34
2023-04-20T01:24:47.955Z,102269.75
2023-04-20T01:27:17.066Z,102255.28
2023-04-20T01:29:45.460Z,102255.28
2023-04-20T01:32:14.774Z,102252.19
2023-04-20T01:39:42.211Z,102246.47
2023-04-20T01:42:10.774Z,102248.50
2023-04-20T01:45:05.331Z,102238.00
2023-04-20T01:47:34.104Z,102239.69
2023-04-20T01:50:02.154Z,102232.47
2023-04-20T01:52:30.149Z,102234.28
2023-04-20T01:54:59.544Z,102239.03
2023-04-20T02:01:38.351Z,102233.47
2023-04-20T02:04:06.613Z,102231.78
2023-04-20T02:06:34.617Z,102232.94
2023-04-20T02:09:02.631Z,102219.78
2023-04-20T02:11:32.060Z,102217.91
2023-04-20T02:14:02.297Z,102228.72
2023-04-20T02:16:30.596Z,102231.34
2023-04-20T02:18:58.648Z,102228.00
2023-04-20T02:21:28.013Z,102225.31
2023-04-20T02:23:56.031Z,102225.31
2023-04-20T02:26:24.025Z,102222.78
2023-04-20T02:28:53.450Z,102228.00
2023-04-20T02:31:21.422Z,102219.41
2023-04-20T02:33:49.999Z,102221.41
2023-04-20T02:36:18.129Z,102225.63
2023-04-20T02:38:46.073Z,102221.41
2023-04-20T02:41:14.034Z,102228.78
2023-04-20T02:43:42.797Z,102228.06
2023-04-20T02:46:41.846Z,102227.75
2023-04-20T02:49:10.273Z,102223.06
2023-04-20T02:51:43.300Z,102228.91
2023-04-20T02:54:11.256Z,102226.69
2023-04-20T02:56:39.548Z,102212.19
2023-04-20T02:59:10.529Z,102215.03
2023-04-20T03:01:46.303Z,102223.84
2023-04-20T03:04:22.258Z,102216.22
2023-04-20T03:07:00.455Z,102227.38
2023-04-20T03:09:31.403Z,102219.38
2023-04-20T03:12:18.408Z,102218.53
2023-04-20T03:15:19.833Z,102213.66
2023-04-20T03:18:09.387Z,102215.38
2023-04-20T03:20:37.612Z,102218.69
2023-04-20T03:23:05.613Z,102207.03
2023-04-20T03:25:34.254Z,102212.66
2023-04-20T03:28:08.019Z,102215.69
2023-04-20T03:30:37.046Z,102211.13
2023-04-20T03:33:11.852Z,102207.03
2023-04-20T03:35:40.256Z,102206.56
2023-04-20T03:38:08.207Z,102217.69
2023-04-20T03:40:36.326Z,102214.28
2023-04-20T03:43:05.910Z,102213.44
2023-04-20T03:45:34.137Z,102207.41
2023-04-20T03:48:02.290Z,102216.84
2023-04-20T03:50:31.813Z,102216.13
2023-04-20T03:52:59.896Z,102216.84
2023-04-20T03:55:28.085Z,102225.91
2023-04-20T03:58:01.268Z,102218.00
2023-04-20T04:00:38.350Z,102222.56
2023-04-20T04:03:11.353Z,102223.72
2023-04-20T04:05:41.667Z,102216.06
2023-04-20T04:08:09.660Z,102209.00
2023-04-20T04:10:37.662Z,102218.44
2023-04-20T04:13:05.762Z,102218.06
2023-04-20T04:15:33.758Z,102219.47
2023-04-20T04:18:09.928Z,102223.16
2023-04-20T04:20:40.776Z,102221.09
2023-04-20T04:23:10.479Z,102222.94
2023-04-20T04:25:48.672Z,102223.47
2023-04-20T04:28:19.180Z,102222.75
2023-04-20T04:30:56.611Z,102229.69
2023-04-20T04:33:25.479Z,102225.78
2023-04-20T04:35:57.506Z,102238.28
2023-04-20T04:38:26.798Z,102225.34
2023-04-20T04:40:56.445Z,102218.44
2023-04-20T04:43:25.774Z,102219.97
2023-04-20T04:46:09.903Z,102218.59
2023-04-20T04:48:40.645Z,102225.28
2023-04-20T04:51:10.434Z,102218.59
2023-04-20T04:53:38.548Z,102230.22
2023-04-20T04:56:07.700Z,102231.00
2023-04-20T04:58:35.772Z,102231.22
2023-04-20T05:01:03.752Z,102233.53
2023-04-20T05:03:31.874Z,102224.84
2023-04-20T05:06:00.037Z,102226.16
2023-04-20T05:08:29.358Z,102234.38
2023-04-20T05:10:58.411Z,102239.47
2023-04-20T05:13:26.448Z,102236.63
2023-04-20T05:15:54.395Z,102236.47
2023-04-20T05:18:22.393Z,102242.03
2023-04-20T05:20:50.345Z,102231.75
2023-04-20T05:23:18.353Z,102235.78
2023-04-20T05:25:47.718Z,102239.06
2023-04-20T05:28:15.866Z,102235.63
2023-04-20T05:30:43.978Z,102240.88
2023-04-20T05:33:11.890Z,102242.53
2023-04-20T05:35:40.433Z,102243.94
2023-04-20T05:38:08.439Z,102250.03
2023-04-20T05:40:36.358Z,102243.25
2023-04-20T05:43:06.115Z,102240.78
2023-04-20T05:45:34.630Z,102245.03
2023-04-20T05:48:02.894Z,102240.47
2023-04-20T05:50:31.643Z,102244.41
2023-04-20T05:52:59.646Z,102246.13
2023-04-20T05:55:27.640Z,102246.81
2023-04-20T05:57:55.706Z,102251.59
2023-04-20T06:00:26.269Z,102254.97
2023-04-20T06:02:55.190Z,102254.66
2023-04-20T06:05:24.088Z,102244.41
2023-04-20T06:07:52.178Z,102251.19
2023-04-20T06:10:20.137Z,102256.09
2023-04-20T06:12:48.480Z,102246.00
2023-04-20T06:15:16.471Z,102256.53
2023-04-20T06:17:45.909Z,102245.72
2023-04-20T06:20:13.995Z,102258.59
2023-04-20T06:22:45.373Z,102264.69
2023-04-20T06:25:15.357Z,102262.34
2023-04-20T06:27:43.393Z,102261.72
2023-04-20T06:30:12.401Z,102263.47
2023-04-20T06:32:40.657Z,102258.44
2023-04-20T06:35:10.680Z,102264.00
2023-04-20T06:37:40.307Z,102260.50
2023-04-20T06:40:09.427Z,102265.94
2023-04-20T06:42:37.863Z,102263.28
2023-04-20T06:45:07.114Z,102260.72
2023-04-20T06:47:35.598Z,102253.53
2023-04-20T06:50:07.311Z,102255.59
2023-04-20T06:52:37.894Z,102249.88
2023-04-20T06:55:06.787Z,102255.16
2023-04-20T06:57:34.848Z,102252.84
2023-04-20T07:00:03.033Z,102255.06
2023-04-20T07:02:32.326Z,102252.06
2023-04-20T07:05:02.596Z,102252.06
2023-04-20T07:07:30.770Z,102242.59
2023-04-20T07:10:00.185Z,102250.22
2023-04-20T07:12:28.807Z,102239.53
2023-04-20T07:14:56.751Z,102246.06
2023-04-20T07:17:29.312Z,102241.56
2023-04-20T07:19:58.090Z,102249.19
2023-04-20T07:22:26.127Z,102240.44
2023-04-20T07:24:54.127Z,102241.75
2023-04-20T07:27:23.464Z,102238.06
2023-04-20T07:29:51.395Z,102240.13
2023-04-20T07:32:19.443Z,102240.22
2023-04-20T07:34:47.596Z,102233.75
2023-04-20T07:37:15.530Z,102240.72
2023-04-20T07:39:43.481Z,102236.59
2023-04-20T07:42:11.402Z,102223.69
2023-04-20T07:44:40.748Z,102219.84
2023-04-20T07:47:08.697Z,102220.94
2023-04-20T07:49:37.647Z,102219.88
2023-04-20T07:52:15.737Z,102221.31
2023-04-20T07:54:45.212Z,102215.78
2023-04-20T07:57:13.580Z,102217.13
2023-04-20T07:59:43.373Z,102210.75
2023-04-20T08:02:11.512Z,102203.34
2023-04-20T08:04:39.840Z,102214.00
2023-04-20T08:07:08.201Z,102204.50
2023-04-20T08:09:36.483Z,102216.84
2023-04-20T08:12:04.999Z,102216.59
2023-04-20T08:14:33.705Z,102210.72
2023-04-20T08:17:03.044Z,102205.84
2023-04-20T08:19:31.234Z,102209.13
2023-04-20T08:22:00.622Z,102205.91
2023-04-20T08:24:29.700Z,102206.31
2023-04-20T08:26:59.358Z,102205.03
2023-04-20T08:29:27.574Z,102207.91
2023-04-20T08:31:55.775Z,102194.81
2023-04-20T08:34:25.309Z,102195.00
2023-04-20T08:36:53.386Z,102196.38
2023-04-20T08:39:24.457Z,102190.00
2023-04-20T08:41:54.010Z,102196.06
2023-04-20T08:44:22.070Z,102180.03
2023-04-20T08:46:50.660Z,102169.59
2023-04-20T08:49:20.977Z,102183.91
2023-04-20T08:51:51.508Z,102173.19
2023-04-20T08:54:19.780Z,102171.53
2023-04-20T08:56:48.979Z,102163.28
2023-04-20T08:59:17.235Z,102162.66
2023-04-20T09:01:46.445Z,102158.66
2023-04-20T09:04:20.104Z,102161.63
2023-04-20T09:06:51.194Z,102154.38
2023-04-20T09:09:19.697Z,102155.03
2023-04-20T09:11:48.529Z,102150.81
2023-04-20T09:14:18.521Z,102157.53
2023-04-20T09:16:51.813Z,102155.88
2023-04-20T09:19:23.854Z,102152.69
2023-04-20T09:21:55.039Z,102148.56
2023-04-20T09:24:25.391Z,102152.78
2023-04-20T09:26:56.502Z,102149.84
2023-04-20T09:29:25.803Z,102137.63
2023-04-20T09:31:54.301Z,102141.47
2023-04-20T09:34:23.239Z,102132.22
2023-04-20T09:36:55.958Z,102120.84
2023-04-20T09:39:25.266Z,102114.91
2023-04-20T09:41:54.034Z,102121.63
2023-04-20T09:44:22.431Z,102118.66
2023-04-20T09:46:50.820Z,102108.84
2023-04-20T09:49:20.263Z,102110.28
2023-04-20T09:51:48.602Z,102101.44
2023-04-20T09:54:18.189Z,102098.69
2023-04-20T09:56:47.346Z,102100.09
2023-04-20T09:59:15.594Z,102087.66
2023-04-20T10:01:43.724Z,102082.75
2023-04-20T10:04:14.305Z,102086.09
2023-04-20T10:06:53.899Z,102072.69
2023-04-20T10:09:26.001Z,102076.94
2023-04-20T10:11:56.065Z,102069.94
2023-04-20T10:14:27.032Z,102057.03
2023-04-20T10:17:04.270Z,102067.44
2023-04-20T10:19:40.651Z,102049.56
2023-04-20T10:22:09.598Z,102039.81
2023-04-20T10:24:39.425Z,102038.47
2023-04-20T10:27:17.862Z,102032.03
2023-04-20T10:29:45.995Z,102030.78
2023-04-20T10:32:23.156Z,102023.03
2023-04-20T10:35:02.478Z,102025.00
2023-04-20T10:37:32.190Z,102022.09
2023-04-20T10:40:02.128Z,102008.88
2023-04-20T10:42:30.573Z,102011.63
2023-04-20T10:44:58.603Z,102004.03
2023-04-20T10:47:31.452Z,102006.31
2023-04-20T10:50:08.054Z,101988.47
2023-04-20T10:52:37.372Z,101977.97
2023-04-20T10:55:08.483Z,101972.41
2023-04-20T10:57:37.424Z,101973.56
2023-04-20T11:00:16.500Z,101971.47
2023-04-20T11:02:50.277Z,101965.03
2023-04-20T11:05:18.987Z,101980.22
2023-04-20T11:07:53.498Z,101972.72
2023-04-20T11:10:24.728Z,101971.53
2023-04-20T11:12:53.244Z,101960.09
2023-04-20T11:15:33.051Z,101964.97
2023-04-20T11:18:08.361Z,101960.91
2023-04-20T11:20:37.067Z,101965.94
2023-04-20T11:23:06.075Z,101969.25
2023-04-20T11:25:35.572Z,101946.81
2023-04-20T11:28:08.747Z,101953.63
2023-04-20T11:30:41.221Z,101951.13
2023-04-20T11:33:09.587Z,101942.88
2023-04-20T11:35:38.479Z,101940.00
2023-04-20T11:38:06.837Z,101923.97
2023-04-20T11:40:36.809Z,101921.72
2023-04-20T11:43:05.812Z,101922.34
2023-04-20T11:45:36.195Z,101920.47
2023-04-20T11:48:06.422Z,101918.72
2023-04-20T11:50:34.562Z,101908.16
2023-04-20T11:53:02.554Z,101899.34
2023-04-20T11:55:30.547Z,101892.16
2023-04-20T11:58:00.182Z,101895.13
2023-04-20T12:00:28.353Z,101893.06
2023-04-20T12:03:48.083Z,101893.78
2023-04-20T12:06:16.414Z,101892.81
2023-04-20T12:08:44.370Z,101880.06
2023-04-20T12:11:12.437Z,101867.97
2023-04-20T12:13:41.830Z,101865.66
2023-04-20T12:16:09.829Z,101858.91
2023-04-20T12:18:37.914Z,101850.94
2023-04-20T12:21:06.145Z,101853.84
2023-04-20T12:23:34.913Z,101854.47
2023-04-20T12:26:03.182Z,101859.94
2023-04-20T12:28:31.312Z,101844.84
2023-04-20T12:31:26.571Z,101846.28
2023-04-20T12:34:48.733Z,101839.34
2023-04-20T12:37:16.846Z,101837.94
2023-04-20T12:39:44.851Z,101849.47
2023-04-20T12:42:12.986Z,101829.66
2023-04-20T12:44:41.010Z,101830.72
2023-04-20T12:47:10.632Z,101820.69
2023-04-20T12:49:38.799Z,101823.00
2023-04-20T12:52:08.119Z,101821.84
2023-04-20T12:54:36.406Z,101818.19
2023-04-20T12:57:04.911Z,101824.91
2023-04-20T12:59:33.071Z,101819.59
2023-04-20T13:02:01.167Z,101811.31
2023-04-20T13:04:30.669Z,101817.84
2023-04-20T13:06:58.816Z,101817.28
2023-04-20T13:09:27.383Z,101810.09
2023-04-20T13:11:55.474Z,101796.56
2023-04-20T13:14:23.471Z,101806.94
2023-04-20T13:16:54.378Z,101808.06
2023-04-20T13:19:23.309Z,101814.72
2023-04-20T13:21:52.775Z,101788.31
2023-04-20T13:24:21.065Z,101801.09
2023-04-20T13:26:49.345Z,101787.13
2023-04-20T13:29:17.644Z,101788.31
2023-04-20T13:31:47.594Z,101793.75
2023-04-20T13:34:16.246Z,101780.53
2023-04-20T13:36:44.595Z,101772.72
2023-04-20T13:39:14.331Z,101769.63
2023-04-20T13:41:42.388Z,101758.91
2023-04-20T13:44:15.958Z,101758.22
2023-04-20T13:46:44.844Z,101758.06
2023-04-20T13:49:13.571Z,101762.31
2023-04-20T13:51:42.315Z,101770.22
2023-04-20T13:54:10.553Z,101750.38
2023-04-20T13:56:40.015Z,101743.56
2023-04-20T13:59:07.958Z,101751.84
2023-04-20T14:01:36.862Z,101747.06
2023-04-20T14:04:05.344Z,101745.03
2023-04-20T14:06:33.433Z,101749.06
2023-04-20T14:09:01.407Z,101724.56
2023-04-20T14:11:29.372Z,101722.22
2023-04-20T14:13:58.780Z,101731.03
2023-04-20T14:16:27.227Z,101712.44
2023-04-20T14:18:55.334Z,101713.22
2023-04-20T14:21:23.312Z,101712.00
2023-04-20T14:23:53.464Z,101706.72
2023-04-20T14:26:21.699Z,101705.50
2023-04-20T14:28:49.652Z,101696.81
2023-04-20T14:31:18.982Z,101703.94
2023-04-20T14:33:47.284Z,101697.16
2023-04-20T14:36:40.084Z,101690.91
2023-04-20T14:39:08.225Z,101697.41
2023-04-20T14:41:36.681Z,101698.81
2023-04-20T14:44:05.241Z,101679.47
2023-04-20T14:46:34.704Z,101680.59
2023-04-20T14:49:02.730Z,101677.91
2023-04-20T14:51:30.976Z,101670.81
2023-04-20T14:53:59.051Z,101673.16
2023-04-20T14:56:27.140Z,101665.31
2023-04-20T14:58:57.185Z,101664.31
2023-04-20T15:01:25.334Z,101661.53
2023-04-20T15:04:50.425Z,101666.72
2023-04-20T15:07:19.952Z,101655.59
2023-04-20T15:09:48.000Z,101656.75
2023-04-20T15:12:16.090Z,101652.78
2023-04-20T15:14:44.159Z,101656.31
2023-04-20T15:17:13.901Z,101662.88
2023-04-20T15:19:45.846Z,101658.75
2023-04-20T15:22:13.991Z,101654.69
2023-04-20T15:24:43.574Z,101635.25
2023-04-20T15:27:11.698Z,101657.41
2023-04-20T15:29:39.671Z,101629.28
2023-04-20T15:32:08.387Z,101641.19
2023-04-20T15:34:36.406Z,101643.81
2023-04-20T15:37:04.487Z,101652.09
2023-04-20T15:39:32.539Z,101650.72
2023-04-20T15:42:03.163Z,101647.59
2023-04-20T15:44:31.368Z,101634.81
2023-04-20T15:46:59.577Z,101650.34
2023-04-20T15:49:27.790Z,101648.50
2023-04-20T15:51:55.792Z,101656.91
2023-04-20T15:54:24.494Z,101659.03
2023-04-20T15:56:52.533Z,101663.53
2023-04-20T15:59:22.020Z,101660.41
2023-04-20T16:01:50.231Z,101671.97
2023-04-20T16:04:19.071Z,101672.00
2023-04-20T16:06:47.314Z,101683.97
2023-04-20T16:09:15.465Z,101683.63
2023-04-20T16:11:48.222Z,101702.94
2023-04-20T16:14:16.398Z,101703.50
2023-04-20T16:16:46.010Z,101711.06
2023-04-20T16:19:14.679Z,101713.78
2023-04-20T16:21:42.754Z,101705.13
2023-04-20T16:24:10.841Z,101722.88
2023-04-20T16:26:40.780Z,101710.09
2023-04-20T16:29:09.486Z,101722.94
2023-04-20T16:31:37.796Z,101727.63
2023-04-20T16:34:07.251Z,101713.50
2023-04-20T16:36:35.900Z,101715.03
2023-04-20T16:39:06.555Z,101716.44
2023-04-20T16:41:34.619Z,101719.84
2023-04-20T16:44:02.986Z,101729.66
2023-04-20T16:46:32.026Z,101721.44
2023-04-20T16:49:00.185Z,101727.16
2023-04-20T16:51:29.660Z,101727.97
2023-04-20T16:53:57.732Z,101724.88
2023-04-20T16:56:25.779Z,101732.56
2023-04-20T16:58:53.766Z,101727.91
2023-04-20T17:01:21.803Z,101724.09
2023-04-20T17:03:49.920Z,101727.69
2023-04-20T17:06:18.157Z,101725.25
2023-04-20T17:08:49.416Z,101719.69
2023-04-20T17:11:19.297Z,101728.09
2023-04-20T17:13:50.075Z,101731.28
2023-04-20T17:16:18.284Z,101733.19
2023-04-20T17:18:46.312Z,101734.22
2023-04-20T17:21:14.381Z,101737.91
2023-04-20T17:23:42.412Z,101733.88
2023-04-20T17:26:11.878Z,101736.84
2023-04-20T17:28:40.067Z,101734.66
2023-04-20T17:31:08.127Z,101733.69
2023-04-20T17:33:36.081Z,101741.56
2023-04-20T17:36:04.110Z,101739.69
2023-04-20T17:38:36.480Z,101738.94
2023-04-20T17:41:04.929Z,101742.16
2023-04-20T17:43:36.151Z,101746.56
2023-04-20T17:46:04.233Z,101742.22
2023-04-20T17:48:32.202Z,101743.78
2023-04-20T17:51:00.188Z,101735.50
2023-04-20T17:53:28.633Z,101735.66
2023-04-20T17:55:56.658Z,101734.88
2023-04-20T17:58:24.978Z,101742.38
2023-04-20T18:00:54.428Z,101734.88
2023-04-20T18:03:22.678Z,101741.91
2023-04-20T18:05:51.725Z,101734.72
2023-04-20T18:08:23.236Z,101733.34
2023-04-20T18:10:51.290Z,101750.91
2023-04-20T18:13:19.369Z,101737.63
2023-04-20T18:15:47.518Z,101739.03
2023-04-20T18:18:18.532Z,101742.00
2023-04-20T18:20:46.560Z,101735.50
2023-04-20T18:23:14.668Z,101739.97
2023-04-20T18:25:42.851Z,101738.09
2023-04-20T18:28:11.319Z,101738.19
2023-04-20T18:30:39.385Z,101733.81
2023-04-20T18:33:07.411Z,101735.19
2023-04-20T18:35:36.962Z,101740.13
2023-04-20T18:38:05.761Z,101738.31
2023-04-20T18:40:33.786Z,101745.66
2023-04-20T18:43:01.984Z,101744.00
2023-04-20T18:45:30.956Z,101751.09
2023-04-20T18:47:59.177Z,101742.97
2023-04-20T18:50:27.212Z,101737.66
2023-04-20T18:52:56.758Z,101736.72
2023-04-20T18:55:24.904Z,101741.03
2023-04-20T18:57:52.887Z,101742.06
2023-04-20T19:00:20.920Z,101745.31
2023-04-20T19:02:48.975Z,101750.53
2023-04-20T19:05:17.089Z,101746.34
2023-04-20T19:07:46.168Z,101743.66
2023-04-20T19:10:15.668Z,101748.25
2023-04-20T19:12:43.713Z,101760.16
2023-04-20T19:15:12.475Z,101752.59
2023-04-20T19:17:41.972Z,101748.59
2023-04-20T19:20:11.318Z,101749.78
2023-04-20T19:22:39.359Z,101734.94
2023-04-20T19:25:08.706Z,101740.16
2023-04-20T19:27:38.119Z,101744.09
2023-04-20T19:30:07.512Z,101754.44
2023-04-20T19:32:35.672Z,101751.00
2023-04-20T19:35:03.865Z,101749.69
2023-04-20T19:37:32.046Z,101744.25
2023-04-20T19:40:00.374Z,101745.03
2023-04-20T19:42:28.387Z,101746.03
2023-04-20T19:44:58.425Z,101748.41
2023-04-20T19:47:27.409Z,101760.97
2023-04-20T19:49:55.440Z,101753.28
2023-04-20T19:52:23.453Z,101751.81
2023-04-20T19:54:51.447Z,101747.72
2023-04-20T19:57:19.423Z,101750.56
2023-04-20T19:59:47.512Z,101745.81
2023-04-20T20:02:16.996Z,101741.13
2023-04-20T20:04:45.121Z,101735.25
2023-04-20T20:07:13.867Z,101741.63
2023-04-20T20:09:44.031Z,101743.47
2023-04-20T20:12:12.523Z,101739.19
2023-04-20T20:14:40.697Z,101741.72
2023-04-20T20:17:08.773Z,101742.94
2023-04-20T20:19:38.242Z,101745.47
2023-04-20T20:22:56.611Z,101736.31
2023-04-20T20:25:24.784Z,101734.34
2023-04-20T20:27:52.879Z,101738.34
2023-04-20T20:30:21.024Z,101730.91
2023-04-20T20:32:49.135Z,101733.84
2023-04-20T20:39:26.506Z,101724.91
2023-04-20T20:41:57.043Z,101723.59
2023-04-20T20:44:25.322Z,101728.63
2023-04-20T20:46:53.366Z,101716.78
2023-04-20T20:49:21.467Z,101711.66
2023-04-20T20:51:49.494Z,101722.84
2023-04-20T20:54:17.467Z,101719.13
2023-04-20T20:56:46.829Z,101718.94
2023-04-20T20:59:14.828Z,101726.88
2023-04-20T21:01:43.072Z,101720.63
2023-04-20T21:04:11.442Z,101718.41
2023-04-20T21:06:39.536Z,101722.97
2023-04-20T21:09:07.554Z,101727.06
2023-04-20T21:11:35.600Z,101720.44
2023-04-20T21:14:05.144Z,101720.25
2023-04-20T21:16:33.322Z,101720.09
2023-04-20T21:19:01.302Z,101721.47
2023-04-20T21:21:29.288Z,101725.19
2023-04-20T21:23:57.362Z,101722.50
2023-04-20T21:26:25.489Z,101718.13
2023-04-20T21:28:53.513Z,101718.19
2023-04-20T21:31:23.019Z,101725.50
2023-04-20T21:33:51.105Z,101711.66
2023-04-20T21:36:19.112Z,101711.13
2023-04-20T21:38:47.203Z,101712.22
2023-04-20T21:41:15.233Z,101710.63
2023-04-20T21:43:43.574Z,101712.41
2023-04-20T21:46:15.506Z,101714.06
2023-04-20T21:48:45.177Z,101706.63
2023-04-20T21:51:16.875Z,101713.34
2023-04-20T21:53:45.415Z,101715.72
2023-04-20T21:56:14.927Z,101717.81
2023-04-20T21:58:43.133Z,101714.00
2023-04-20T22:01:11.252Z,101711.31
2023-04-20T22:03:39.719Z,101717.44
2023-04-20T22:06:09.629Z,101707.59
2023-04-20T22:08:39.912Z,101697.09
2023-04-20T22:11:08.921Z,101704.22
2023-04-20T22:13:38.074Z,101701.31
2023-04-20T22:16:07.423Z,101687.16
2023-04-20T22:18:35.860Z,101688.66
2023-04-20T22:21:04.539Z,101690.56
2023-04-20T22:23:34.330Z,101679.56
2023-04-20T22:26:02.703Z,101679.94
2023-04-20T22:28:31.214Z,101658.09
2023-04-20T22:30:59.660Z,101656.72
2023-04-20T22:33:27.969Z,101651.78
2023-04-20T22:35:57.454Z,101652.63
2023-04-20T22:38:25.924Z,101650.78
2023-04-20T22:40:55.833Z,101644.25
2023-04-20T22:43:24.374Z,101634.88
2023-04-20T22:45:54.082Z,101630.97
2023-04-20T22:48:22.645Z,101641.63
2023-04-20T22:50:51.255Z,101643.38
2023-04-20T22:53:19.664Z,101631.84
2023-04-20T22:55:47.991Z,101640.88
2023-04-20T22:58:17.717Z,101628.72
2023-04-20T23:00:46.680Z,101627.81
2023-04-20T23:03:15.057Z,101631.56
2023-04-20T23:05:44.493Z,101632.19
2023-04-20T23:08:13.783Z,101635.09
2023-04-20T23:10:42.077Z,101624.56
2023-04-20T23:13:17.141Z,101631.47
2023-04-20T23:15:46.918Z,101623.34
2023-04-20T23:18:15.009Z,101621.72
2023-04-20T23:20:42.981Z,101623.72
2023-04-20T23:23:11.607Z,101614.66
2023-04-20T23:25:39.792Z,101618.66
2023-04-20T23:28:07.818Z,101619.53
2023-04-20T23:30:36.469Z,101619.22
2023-04-20T23:33:05.926Z,101616.81
2023-04-20T23:35:34.360Z,101615.19
2023-04-20T23:38:02.750Z,101618.19
2023-04-20T23:40:31.206Z,101609.34
2023-04-20T23:42:59.215Z,101609.81
2023-04-20T23:45:27.593Z,101610.38
2023-04-20T23:47:55.676Z,101607.50
2023-04-20T23:50:25.055Z,101610.38
2023-04-20T23:52:53.036Z,101611.03
2023-04-20T23:55:21.250Z,101611.28
2023-04-20T23:57:49.321Z,101602.81
